createdAt,value
2018-10-12T00:00:53.523Z,63.10
2018-10-12T00:03:21.680Z,63.10
2018-10-12T00:05:49.854Z,63.50
2018-10-12T00:08:18.164Z,63.80
2018-10-12T00:10:46.330Z,63.90
2018-10-12T00:13:14.544Z,63.90
2018-10-12T00:15:42.716Z,63.90
2018-10-12T00:18:10.938Z,64.20
2018-10-12T00:20:39.084Z,64.30
2018-10-12T00:23:07.265Z,64.30
2018-10-12T00:25:35.510Z,64.80
2018-10-12T00:28:03.666Z,65.00
2018-10-12T00:30:31.888Z,65.30
2018-10-12T00:33:00.076Z,65.70
2018-10-12T00:35:28.306Z,65.90
2018-10-12T00:37:56.604Z,66.30
2018-10-12T00:40:24.827Z,67.10
2018-10-12T00:42:53.590Z,66.80
2018-10-12T00:45:21.824Z,67.00
2018-10-12T00:47:55.442Z,67.50
2018-10-12T00:50:23.661Z,67.60
2018-10-12T00:52:51.845Z,67.90
2018-10-12T00:55:20.154Z,68.10
2018-10-12T00:57:48.330Z,68.30
2018-10-12T01:00:16.541Z,68.40
2018-10-12T01:02:44.776Z,68.70
2018-10-12T01:05:12.981Z,68.70
2018-10-12T01:07:41.395Z,69.40
2018-10-12T01:10:09.670Z,69.80
2018-10-12T01:12:38.272Z,70.10
2018-10-12T01:15:06.917Z,70.50
2018-10-12T01:17:35.857Z,70.90
2018-10-12T01:20:04.303Z,71.20
2018-10-12T01:22:32.481Z,71.50
2018-10-12T01:25:01.861Z,71.70
2018-10-12T01:27:30.322Z,72.10
2018-10-12T01:29:58.837Z,72.30
2018-10-12T01:32:32.382Z,72.60
2018-10-12T01:35:00.553Z,72.40
2018-10-12T01:37:28.915Z,72.80
2018-10-12T01:40:03.819Z,72.60
2018-10-12T01:42:32.005Z,73.00
2018-10-12T01:45:00.167Z,73.20
2018-10-12T01:47:28.421Z,73.20
2018-10-12T01:49:56.612Z,73.70
2018-10-12T01:52:24.806Z,74.00
2018-10-12T01:54:52.973Z,74.30
2018-10-12T01:57:21.204Z,74.60
2018-10-12T01:59:49.375Z,74.80
2018-10-12T02:02:17.599Z,74.90
2018-10-12T02:04:45.865Z,75.20
2018-10-12T02:07:14.077Z,75.50
2018-10-12T02:09:42.293Z,75.70
2018-10-12T02:12:10.475Z,76.00
2018-10-12T02:14:38.648Z,76.10
2018-10-12T02:17:06.853Z,76.50
2018-10-12T02:19:35.031Z,76.40
2018-10-12T02:22:03.233Z,76.50
2018-10-12T02:24:31.495Z,76.80
2018-10-12T02:26:59.709Z,77.20
2018-10-12T02:29:27.931Z,77.70
2018-10-12T02:31:56.168Z,77.70
2018-10-12T02:34:24.379Z,77.80
2018-10-12T02:36:52.513Z,78.10
2018-10-12T02:39:20.708Z,78.20
2018-10-12T02:41:48.911Z,78.10
2018-10-12T02:44:17.099Z,78.40
2018-10-12T02:46:45.298Z,78.60
2018-10-12T02:49:13.479Z,78.60
2018-10-12T02:51:41.726Z,78.70
2018-10-12T02:54:09.893Z,78.90
2018-10-12T02:56:38.092Z,79.20
2018-10-12T02:59:06.397Z,79.10
2018-10-12T03:01:34.589Z,79.30
2018-10-12T03:04:02.850Z,79.50
2018-10-12T03:06:30.998Z,79.60
2018-10-12T03:08:59.223Z,79.60
2018-10-12T03:11:27.414Z,79.90
2018-10-12T03:13:55.664Z,80.20
2018-10-12T03:16:23.833Z,80.30
2018-10-12T03:18:52.038Z,80.40
2018-10-12T03:21:20.252Z,80.70
2018-10-12T03:23:48.426Z,80.90
2018-10-12T03:26:16.714Z,81.20
2018-10-12T03:28:44.886Z,81.00
2018-10-12T03:31:13.054Z,81.00
2018-10-12T03:33:41.298Z,80.90
2018-10-12T03:36:09.489Z,81.10
2018-10-12T03:38:37.726Z,81.40
2018-10-12T03:41:05.920Z,81.50
2018-10-12T03:43:34.112Z,81.50
2018-10-12T03:46:02.312Z,81.50
2018-10-12T03:48:30.512Z,81.80
2018-10-12T03:50:58.685Z,81.60
2018-10-12T03:53:26.932Z,82.10
2018-10-12T03:55:55.111Z,82.30
2018-10-12T03:58:23.309Z,82.70
2018-10-12T04:00:51.540Z,82.90
2018-10-12T04:03:19.718Z,83.00
2018-10-12T04:05:48.028Z,83.20
2018-10-12T04:08:16.234Z,83.40
2018-10-12T04:10:44.436Z,83.50
2018-10-12T04:13:12.602Z,83.70
2018-10-12T04:15:40.850Z,83.70
2018-10-12T04:18:09.078Z,83.80
2018-10-12T04:20:37.358Z,84.20
2018-10-12T04:23:05.645Z,84.60
2018-10-12T04:25:33.804Z,84.40
2018-10-12T04:28:02.010Z,84.70
2018-10-12T04:30:30.164Z,84.70
2018-10-12T04:32:58.378Z,85.80
2018-10-12T04:37:54.517Z,84.70
2018-10-12T04:41:28.019Z,85.10
2018-10-12T04:43:58.643Z,85.00
2018-10-12T04:46:31.072Z,85.60
2018-10-12T04:48:59.464Z,85.60
2018-10-12T04:51:29.582Z,85.50
2018-10-12T04:53:57.802Z,85.20
2018-10-12T04:56:26.374Z,85.30
2018-10-12T04:58:54.606Z,85.90
2018-10-12T05:01:22.896Z,85.60
2018-10-12T05:03:51.069Z,86.00
2018-10-12T05:06:19.232Z,86.40
2018-10-12T05:08:47.463Z,86.40
2018-10-12T05:11:15.644Z,86.80
2018-10-12T05:13:50.448Z,87.00
2018-10-12T05:16:18.598Z,86.90
2018-10-12T05:18:46.881Z,87.00
2018-10-12T05:21:15.092Z,87.10
2018-10-12T05:23:43.270Z,87.30
2018-10-12T05:26:11.497Z,87.40
2018-10-12T05:28:39.842Z,87.40
2018-10-12T05:31:08.364Z,87.10
2018-10-12T05:33:36.590Z,87.20
2018-10-12T05:36:04.886Z,87.20
2018-10-12T05:38:33.414Z,87.10
2018-10-12T05:41:01.880Z,87.40
2018-10-12T05:43:30.328Z,87.40
2018-10-12T05:45:58.516Z,87.50
2018-10-12T05:48:38.262Z,87.60
2018-10-12T05:51:07.115Z,87.60
2018-10-12T05:53:35.562Z,87.70
2018-10-12T05:56:04.041Z,87.80
2018-10-12T05:58:32.501Z,87.70
2018-10-12T06:01:00.683Z,88.40
2018-10-12T06:03:28.905Z,87.80
2018-10-12T06:05:57.083Z,87.60
2018-10-12T06:08:25.220Z,87.40
2018-10-12T06:10:53.461Z,87.50
2018-10-12T06:13:21.665Z,87.30
2018-10-12T06:15:49.906Z,87.50
2018-10-12T06:18:18.122Z,87.30
2018-10-12T06:20:52.981Z,87.30
2018-10-12T06:23:21.179Z,86.90
2018-10-12T06:25:49.335Z,86.70
2018-10-12T06:28:17.587Z,86.90
2018-10-12T06:30:45.735Z,86.80
2018-10-12T06:33:13.981Z,86.50
2018-10-12T06:35:42.169Z,86.00
2018-10-12T06:38:10.492Z,85.80
2018-10-12T06:40:38.781Z,85.30
2018-10-12T06:43:07.073Z,84.90
2018-10-12T06:45:35.298Z,84.60
2018-10-12T06:48:03.537Z,83.90
2018-10-12T06:50:31.737Z,83.80
2018-10-12T06:52:59.919Z,83.30
2018-10-12T06:55:28.123Z,83.20
2018-10-12T06:57:56.335Z,82.70
2018-10-12T07:00:24.773Z,82.60
2018-10-12T07:02:52.947Z,82.00
2018-10-12T07:05:21.377Z,81.70
2018-10-12T07:07:49.565Z,81.30
2018-10-12T07:10:17.806Z,80.70
2018-10-12T07:12:45.967Z,80.60
2018-10-12T07:15:14.187Z,80.30
2018-10-12T07:17:42.426Z,80.00
2018-10-12T07:20:10.606Z,79.50
2018-10-12T07:22:39.076Z,78.60
2018-10-12T07:25:07.218Z,78.20
2018-10-12T07:27:35.463Z,77.40
2018-10-12T07:30:03.698Z,77.30
2018-10-12T07:32:31.902Z,76.80
2018-10-12T07:35:00.101Z,76.40
2018-10-12T07:37:28.340Z,75.70
2018-10-12T07:39:56.596Z,75.80
2018-10-12T07:42:24.835Z,74.90
2018-10-12T07:44:53.061Z,74.30
2018-10-12T07:47:21.351Z,74.20
2018-10-12T07:49:49.507Z,73.30
2018-10-12T07:52:17.680Z,72.70
2018-10-12T07:54:45.896Z,72.50
2018-10-12T07:57:15.058Z,72.00
2018-10-12T07:59:44.276Z,71.50
2018-10-12T08:02:13.134Z,70.90
2018-10-12T08:04:42.219Z,70.70
2018-10-12T08:07:11.599Z,69.90
2018-10-12T08:09:39.895Z,69.00
2018-10-12T08:12:08.021Z,68.70
2018-10-12T08:14:36.248Z,67.20
2018-10-12T08:17:04.458Z,67.20
2018-10-12T08:19:32.671Z,67.10
2018-10-12T08:22:00.976Z,66.40
2018-10-12T08:24:29.290Z,65.20
2018-10-12T08:26:57.510Z,64.90
2018-10-12T08:29:26.923Z,64.80
2018-10-12T08:31:55.126Z,64.20
2018-10-12T08:34:23.477Z,63.60
2018-10-12T08:36:51.762Z,63.70
2018-10-12T08:39:20.003Z,63.80
2018-10-12T08:41:48.367Z,62.60
2018-10-12T08:44:16.702Z,61.70
2018-10-12T08:46:44.947Z,62.80
2018-10-12T08:49:13.255Z,61.00
2018-10-12T08:51:41.500Z,56.30
2018-10-12T08:54:09.936Z,52.00
2018-10-12T08:56:38.590Z,50.20
2018-10-12T08:59:06.858Z,48.60
2018-10-12T09:01:35.095Z,47.20
2018-10-12T09:04:03.465Z,44.90
2018-10-12T09:06:31.941Z,44.50
2018-10-12T09:09:01.000Z,44.50
2018-10-12T09:11:29.240Z,42.70
2018-10-12T09:13:57.406Z,41.60
2018-10-12T09:16:25.706Z,41.00
2018-10-12T09:18:53.899Z,40.20
2018-10-12T09:21:22.152Z,40.30
2018-10-12T09:23:50.351Z,40.90
2018-10-12T09:26:18.604Z,41.60
2018-10-12T09:28:46.835Z,41.60
2018-10-12T09:31:15.261Z,40.40
2018-10-12T09:33:43.523Z,39.60
2018-10-12T09:36:11.843Z,39.30
2018-10-12T09:38:40.089Z,40.00
2018-10-12T09:43:36.229Z,38.50
2018-10-12T09:46:04.624Z,38.80
2018-10-12T09:48:32.854Z,38.30
2018-10-12T09:51:01.101Z,38.30
2018-10-12T09:53:29.265Z,38.00
2018-10-12T09:58:25.455Z,39.60
2018-10-12T10:00:59.133Z,52.60
2018-10-12T10:03:32.923Z,53.50
2018-10-12T10:06:01.364Z,53.70
2018-10-12T10:08:29.661Z,53.00
2018-10-12T10:10:57.789Z,52.90
2018-10-12T10:13:25.972Z,54.60
2018-10-12T10:15:54.214Z,53.40
2018-10-12T10:18:22.773Z,53.30
2018-10-12T10:20:50.727Z,36.70
2018-10-12T10:23:18.936Z,36.00
2018-10-12T10:25:47.182Z,36.90
2018-10-12T10:28:15.431Z,36.10
2018-10-12T10:30:43.773Z,35.90
2018-10-12T10:33:11.954Z,35.40
2018-10-12T10:35:40.153Z,34.20
2018-10-12T10:38:08.629Z,34.20
2018-10-12T10:43:05.163Z,34.30
2018-10-12T10:45:33.457Z,35.50
2018-10-12T10:48:01.708Z,35.80
2018-10-12T10:50:29.961Z,34.90
2018-10-12T10:52:58.241Z,34.40
2018-10-12T10:55:26.503Z,34.30
2018-10-12T10:57:54.725Z,34.00
2018-10-12T11:00:22.975Z,33.30
2018-10-12T11:02:51.187Z,33.50
2018-10-12T11:05:19.441Z,32.70
2018-10-12T11:07:47.670Z,32.80
2018-10-12T11:10:15.894Z,32.50
2018-10-12T11:12:44.135Z,32.70
2018-10-12T11:15:12.388Z,32.90
2018-10-12T11:17:40.666Z,33.30
2018-10-12T11:20:08.874Z,33.60
2018-10-12T11:22:37.048Z,33.40
2018-10-12T11:25:05.304Z,33.90
2018-10-12T11:27:33.482Z,33.40
2018-10-12T11:30:02.632Z,32.50
2018-10-12T11:32:30.840Z,32.80
2018-10-12T11:34:59.020Z,32.70
2018-10-12T11:37:27.264Z,33.30
2018-10-12T11:39:55.520Z,33.00
2018-10-12T11:42:28.668Z,33.30
2018-10-12T11:44:56.953Z,33.60
2018-10-12T11:47:25.140Z,33.10
2018-10-12T11:49:53.390Z,32.70
2018-10-12T11:52:21.564Z,31.80
2018-10-12T11:54:49.861Z,31.20
2018-10-12T11:57:18.099Z,31.10
2018-10-12T11:59:46.313Z,31.30
2018-10-12T12:02:14.552Z,31.30
2018-10-12T12:04:42.827Z,31.90
2018-10-12T12:07:11.080Z,30.50
2018-10-12T12:09:39.252Z,30.00
2018-10-12T12:12:07.582Z,30.70
2018-10-12T12:14:35.802Z,31.40
2018-10-12T12:17:04.040Z,31.10
2018-10-12T12:19:32.880Z,31.90
2018-10-12T12:22:01.066Z,31.80
2018-10-12T12:24:29.336Z,32.10
2018-10-12T12:26:57.532Z,31.50
2018-10-12T12:29:25.792Z,30.60
2018-10-12T12:31:54.002Z,30.60
2018-10-12T12:34:22.239Z,30.60
2018-10-12T12:36:50.417Z,30.00
2018-10-12T12:39:18.589Z,30.10
2018-10-12T12:41:46.883Z,29.70
2018-10-12T12:44:15.085Z,29.70
2018-10-12T12:46:43.320Z,30.40
2018-10-12T12:49:11.987Z,30.00
2018-10-12T12:51:40.081Z,30.00
2018-10-12T12:54:08.904Z,29.60
2018-10-12T12:56:37.454Z,31.10
2018-10-12T12:59:05.913Z,30.00
2018-10-12T13:01:34.365Z,30.50
2018-10-12T13:04:03.297Z,30.90
2018-10-12T13:06:31.857Z,31.60
2018-10-12T13:09:00.400Z,30.50
2018-10-12T13:11:28.643Z,30.90
2018-10-12T13:13:56.806Z,30.50
2018-10-12T13:16:24.969Z,31.00
2018-10-12T13:19:00.389Z,30.00
2018-10-12T13:21:29.547Z,30.80
2018-10-12T13:23:57.857Z,31.10
2018-10-12T13:33:43.298Z,30.30
2018-10-12T13:36:16.639Z,30.00
2018-10-12T13:38:51.843Z,30.70
2018-10-12T13:41:26.739Z,30.50
2018-10-12T13:43:59.486Z,31.20
2018-10-12T13:46:32.197Z,31.60
2018-10-12T13:49:02.536Z,32.10
2018-10-12T13:51:36.599Z,32.50
2018-10-12T13:54:05.408Z,32.60
2018-10-12T13:56:35.607Z,32.50
2018-10-12T13:59:10.062Z,33.00
2018-10-12T14:01:39.063Z,32.60
2018-10-12T14:04:11.704Z,32.80
2018-10-12T14:06:40.475Z,32.70
2018-10-12T14:09:09.109Z,33.10
2018-10-12T14:11:43.325Z,33.20
2018-10-12T14:14:20.417Z,33.30
2018-10-12T14:16:49.071Z,34.00
2018-10-12T14:19:19.624Z,34.60
2018-10-12T14:21:55.069Z,34.80
2018-10-12T14:24:23.868Z,35.20
2018-10-12T14:26:57.228Z,35.10
2018-10-12T14:29:32.749Z,35.20
2018-10-12T14:32:07.132Z,35.20
2018-10-12T14:34:38.786Z,35.70
2018-10-12T14:37:12.315Z,35.40
2018-10-12T14:39:42.165Z,35.70
2018-10-12T14:42:13.606Z,35.90
2018-10-12T14:44:45.061Z,35.90
2018-10-12T14:47:19.522Z,35.80
2018-10-12T14:49:56.438Z,36.00
2018-10-12T14:52:26.206Z,36.20
2018-10-12T14:54:57.509Z,36.70
2018-10-12T14:57:28.441Z,37.00
2018-10-12T15:00:02.043Z,38.40
2018-10-12T15:05:02.135Z,37.50
2018-10-12T15:07:31.509Z,37.70
2018-10-12T15:10:01.059Z,38.00
2018-10-12T15:12:30.289Z,38.20
2018-10-12T15:15:23.245Z,38.30
2018-10-12T15:17:53.310Z,38.60
2018-10-12T15:20:24.264Z,38.60
2018-10-12T15:22:57.620Z,38.60
2018-10-12T15:25:27.522Z,39.40
2018-10-12T15:27:58.100Z,38.80
2018-10-12T15:30:27.380Z,39.00
2018-10-12T15:32:57.818Z,39.30
2018-10-12T15:35:28.210Z,39.60
2018-10-12T15:37:59.933Z,40.00
2018-10-12T15:40:33.480Z,40.30
2018-10-12T15:43:06.737Z,40.60
2018-10-12T15:45:38.649Z,46.40
2018-10-12T15:48:07.764Z,41.30
2018-10-12T15:50:37.350Z,41.50
2018-10-12T15:53:07.888Z,41.90
2018-10-12T15:55:39.554Z,41.90
2018-10-12T15:58:11.389Z,48.60
2018-10-12T16:00:40.668Z,42.40
2018-10-12T16:03:10.765Z,42.60
2018-10-12T16:05:40.756Z,52.90
2018-10-12T16:08:09.844Z,52.60
2018-10-12T16:10:38.388Z,44.00
2018-10-12T16:13:06.590Z,43.80
2018-10-12T16:15:34.897Z,44.10
2018-10-12T16:18:03.162Z,49.50
2018-10-12T16:20:31.395Z,44.60
2018-10-12T16:23:00.333Z,44.60
2018-10-12T16:26:06.402Z,44.90
2018-10-12T16:28:34.844Z,45.30
2018-10-12T16:31:03.006Z,70.10
2018-10-12T16:33:31.192Z,78.70
2018-10-12T16:36:00.113Z,55.40
2018-10-12T16:38:28.187Z,68.50
2018-10-12T16:43:24.461Z,80.10
2018-10-12T16:45:53.229Z,62.50
2018-10-12T16:58:14.476Z,88.40
2018-10-12T17:00:43.123Z,49.50
2018-10-12T17:03:17.136Z,49.80
2018-10-12T17:05:46.364Z,50.00
2018-10-12T17:08:14.678Z,50.30
2018-10-12T17:10:42.993Z,50.50
2018-10-12T17:13:11.257Z,50.70
2018-10-12T17:15:58.376Z,51.00
2018-10-12T17:18:26.880Z,51.30
2018-10-12T17:20:55.162Z,51.50
2018-10-12T17:30:48.298Z,51.30
2018-10-12T17:33:16.536Z,52.20
2018-10-12T17:35:45.961Z,52.40
2018-10-12T17:38:14.284Z,52.70
2018-10-12T17:40:42.618Z,52.80
2018-10-12T17:43:10.976Z,53.00
2018-10-12T17:45:39.242Z,53.20
2018-10-12T17:48:07.524Z,53.10
2018-10-12T17:50:35.745Z,53.20
2018-10-12T17:53:04.077Z,53.50
2018-10-12T17:55:32.491Z,53.40
2018-10-12T17:58:01.363Z,53.50
2018-10-12T18:00:29.883Z,53.60
2018-10-12T18:02:58.054Z,54.10
2018-10-12T18:05:26.603Z,54.30
2018-10-12T18:07:55.115Z,54.60
2018-10-12T18:10:23.463Z,54.70
2018-10-12T18:12:51.769Z,55.30
2018-10-12T18:15:21.929Z,55.40
2018-10-12T18:17:50.267Z,55.70
2018-10-12T18:20:18.694Z,56.00
2018-10-12T18:22:47.050Z,56.40
2018-10-12T18:25:15.362Z,56.50
2018-10-12T18:27:43.795Z,56.70
2018-10-12T18:30:12.215Z,57.10
2018-10-12T18:32:40.870Z,57.30
2018-10-12T18:35:09.349Z,57.40
2018-10-12T18:37:37.688Z,57.50
2018-10-12T18:40:05.898Z,57.80
2018-10-12T18:42:34.108Z,57.80
2018-10-12T18:45:02.287Z,57.80
2018-10-12T18:47:30.559Z,58.10
2018-10-12T18:49:58.958Z,58.40
2018-10-12T18:52:27.308Z,58.50
2018-10-12T18:54:55.572Z,58.60
2018-10-12T18:57:23.876Z,58.90
2018-10-12T18:59:52.398Z,59.00
2018-10-12T19:02:20.843Z,58.80
2018-10-12T19:04:49.643Z,59.10
2018-10-12T19:07:18.061Z,59.20
2018-10-12T19:09:46.430Z,59.30
2018-10-12T19:12:14.912Z,59.40
2018-10-12T19:14:47.122Z,59.60
2018-10-12T19:17:15.512Z,59.90
2018-10-12T19:19:44.071Z,60.70
2018-10-12T19:22:12.310Z,61.00
2018-10-12T19:24:47.168Z,60.60
2018-10-12T19:27:15.632Z,61.00
2018-10-12T19:29:44.688Z,61.30
2018-10-12T19:32:13.071Z,61.60
2018-10-12T19:34:41.812Z,62.20
2018-10-12T19:37:10.130Z,62.30
2018-10-12T19:39:38.434Z,62.80
2018-10-12T19:42:06.750Z,62.50
2018-10-12T19:44:35.010Z,63.30
2018-10-12T19:47:03.359Z,62.70
2018-10-12T19:49:31.655Z,62.80
2018-10-12T19:52:00.089Z,63.00
2018-10-12T19:54:28.402Z,63.10
2018-10-12T19:56:56.797Z,63.20
2018-10-12T19:59:25.064Z,63.40
2018-10-12T20:01:53.402Z,63.50
2018-10-12T20:06:50.166Z,70.00
2018-10-12T20:09:18.692Z,74.30
2018-10-12T20:11:47.046Z,64.30
2018-10-12T20:14:15.289Z,64.80
2018-10-12T20:16:43.610Z,65.10
2018-10-12T20:19:11.913Z,65.30
2018-10-12T20:21:40.187Z,65.60
2018-10-12T20:24:09.152Z,65.90
2018-10-12T20:26:37.410Z,65.90
2018-10-12T20:29:05.834Z,66.10
2018-10-12T20:31:34.340Z,66.40
2018-10-12T20:34:02.798Z,66.40
2018-10-12T20:36:31.459Z,66.40
2018-10-12T20:38:59.863Z,66.40
2018-10-12T20:41:28.313Z,66.20
2018-10-12T20:43:57.008Z,67.20
2018-10-12T20:46:25.316Z,66.60
2018-10-12T20:48:54.055Z,66.70
2018-10-12T20:51:22.402Z,67.00
2018-10-12T20:53:50.656Z,67.20
2018-10-12T20:56:18.899Z,67.40
2018-10-12T20:58:47.143Z,67.50
2018-10-12T21:01:15.538Z,67.90
2018-10-12T21:03:44.123Z,68.10
2018-10-12T21:06:12.371Z,68.30
2018-10-12T21:08:40.756Z,69.30
2018-10-12T21:11:38.069Z,68.80
2018-10-12T21:14:06.839Z,69.00
2018-10-12T21:22:35.335Z,70.10
2018-10-12T21:25:17.041Z,70.30
2018-10-12T21:28:02.248Z,70.60
2018-10-12T21:30:35.641Z,71.00
2018-10-12T21:33:11.855Z,70.80
2018-10-12T21:35:41.471Z,71.20
2018-10-12T21:38:10.817Z,71.40
2018-10-12T21:40:40.351Z,71.70
2018-10-12T21:43:10.412Z,72.10
2018-10-12T21:45:40.253Z,72.40
2018-10-12T21:48:09.083Z,72.40
2018-10-12T21:50:38.252Z,72.60
2018-10-12T21:53:06.903Z,72.80
2018-10-12T21:55:35.931Z,73.00
2018-10-12T21:58:05.886Z,73.20
2018-10-12T22:00:34.601Z,73.30
2018-10-12T22:03:02.984Z,73.80
2018-10-12T22:05:31.179Z,73.80
2018-10-12T22:07:59.434Z,74.20
2018-10-12T22:10:27.666Z,74.60
2018-10-12T22:12:55.906Z,74.70
2018-10-12T22:15:24.183Z,75.40
2018-10-12T22:17:52.660Z,84.30
2018-10-12T22:20:20.908Z,89.80
2018-10-12T22:22:49.119Z,93.50
2018-10-12T22:25:17.351Z,95.30
2018-10-12T22:27:45.669Z,94.80
2018-10-12T22:30:13.858Z,94.80
2018-10-12T22:32:42.109Z,94.10
2018-10-12T22:35:10.389Z,94.00
2018-10-12T22:37:38.667Z,93.80
2018-10-12T22:40:06.873Z,94.20
2018-10-12T22:42:35.180Z,93.90
2018-10-12T22:45:03.385Z,94.20
2018-10-12T22:47:31.659Z,94.10
2018-10-12T22:49:59.835Z,94.10
2018-10-12T22:52:28.074Z,94.80
2018-10-12T22:54:56.282Z,96.00
2018-10-12T22:57:24.595Z,96.20
2018-10-12T22:59:52.844Z,95.30
2018-10-12T23:02:21.054Z,95.30
2018-10-12T23:04:49.261Z,96.30
2018-10-12T23:07:17.582Z,96.20
2018-10-12T23:09:45.767Z,96.50
2018-10-12T23:12:13.973Z,96.80
2018-10-12T23:14:42.186Z,97.30
2018-10-12T23:17:10.430Z,79.50
2018-10-12T23:19:38.626Z,78.60
2018-10-12T23:22:07.506Z,78.80
2018-10-12T23:24:35.904Z,78.90
2018-10-12T23:27:04.080Z,79.00
2018-10-12T23:29:32.300Z,79.00
2018-10-12T23:32:00.507Z,79.10
2018-10-12T23:34:28.808Z,79.10
2018-10-12T23:36:56.998Z,79.20
2018-10-12T23:39:25.248Z,79.00
2018-10-12T23:41:53.564Z,79.10
2018-10-12T23:44:21.781Z,79.50
2018-10-12T23:46:49.976Z,79.50
2018-10-12T23:49:18.209Z,79.60
2018-10-12T23:51:46.418Z,79.60
2018-10-12T23:54:14.628Z,79.70
2018-10-12T23:56:42.895Z,79.80
2018-10-12T23:59:11.122Z,80.30
